Time;durP1;ratioP1;P1;durP2;ratioP2;P2;SDS_P1;SDS_P2;PMS_P1;PMS_P2;Temp;Humidity;BMP_temperature;BMP_pressure;BME280_temperature;BME280_humidity;BME280_pressure;Samples;Min_cycle;Max_cycle;Signal;HPM_P1;HPM_P2
2022/09/03 00:00:51;;;;;;;13.85;4.83;;;;;;;13.58;64.66;98507.03;1694657;83;21326;-65
2022/09/03 00:03:38;;;;;;;9.60;4.35;;;;;;;13.50;65.48;98505.01;1691359;83;20890;-62
2022/09/03 00:06:16;;;;;;;8.25;4.00;;;;;;;13.40;66.16;98507.87;1701981;84;20919;-64
2022/09/03 00:08:58;;;;;;;8.60;4.67;;;;;;;13.32;66.49;98506.42;1691868;83;21077;-61
2022/09/03 00:11:49;;;;;;;7.78;4.40;;;;;;;13.31;66.90;98504.27;1689309;82;21476;-65
2022/09/03 00:14:28;;;;;;;7.90;4.17;;;;;;;13.32;66.94;98505.88;1691160;83;21168;-62
2022/09/03 00:17:00;;;;;;;6.60;4.03;;;;;;;13.37;67.35;98503.64;1712920;82;21491;-63
2022/09/03 00:19:38;;;;;;;12.45;4.35;;;;;;;13.41;67.36;98501.41;1720855;82;20963;-62
2022/09/03 00:22:12;;;;;;;7.92;4.30;;;;;;;13.45;67.60;98499.71;1713321;83;20977;-63
2022/09/03 00:24:40;;;;;;;6.72;4.25;;;;;;;13.48;67.69;98499.13;1698881;83;20913;-62
2022/09/03 00:27:12;;;;;;;9.55;4.30;;;;;;;13.53;68.02;98496.35;1722335;82;21098;-64
2022/09/03 00:30:07;;;;;;;6.35;4.35;;;;;;;13.57;68.18;98506.77;1706108;82;20914;-62
2022/09/03 00:32:53;;;;;;;;;;;;;;;13.57;68.52;98504.08;1705777;83;20901;-62
2022/09/03 00:35:27;;;;;;;9.70;4.00;;;;;;;13.52;68.40;98507.39;1722679;82;20060;-62
2022/09/03 00:37:55;;;;;;;8.00;4.22;;;;;;;13.49;68.71;98502.62;1705200;83;21047;-62
2022/09/03 00:40:47;;;;;;;10.20;4.22;;;;;;;13.48;69.02;98501.82;1700549;83;21995;-63
2022/09/03 00:43:37;;;;;;;7.40;3.98;;;;;;;13.47;69.35;98498.87;1698530;83;20953;-63
2022/09/03 00:46:55;;;;;;;6.28;3.72;;;;;;;13.44;69.44;98500.83;1761498;80;20885;-64
2022/09/03 00:49:36;;;;;;;9.18;4.65;;;;;;;13.41;69.75;98502.75;1774502;80;20933;-62
2022/09/03 00:52:20;;;;;;;8.15;4.30;;;;;;;13.37;70.23;98500.41;1772086;80;21006;-63
2022/09/03 00:54:59;;;;;;;9.03;4.05;;;;;;;13.37;70.39;98508.48;1777698;80;21291;-64
2022/09/03 00:57:49;;;;;;;7.20;4.00;;;;;;;13.35;70.41;98504.48;1765316;80;20924;-63
2022/09/03 01:00:22;;;;;;;6.28;4.15;;;;;;;13.33;70.66;98496.69;1762151;81;20968;-63
2022/09/03 01:02:55;;;;;;;10.20;4.03;;;;;;;13.34;70.72;98501.00;1763528;81;21455;-62
2022/09/03 01:05:58;;;;;;;6.30;4.10;;;;;;;13.35;70.35;98493.19;1768359;80;21019;-64
2022/09/03 01:08:49;;;;;;;8.70;3.75;;;;;;;13.40;70.21;98499.02;1768313;80;21284;-61
2022/09/03 01:11:26;;;;;;;6.15;4.10;;;;;;;13.37;69.77;98492.34;1774561;80;20952;-62
2022/09/03 01:14:21;;;;;;;7.42;3.72;;;;;;;13.33;69.99;98500.73;1767787;80;21479;-61
2022/09/03 01:16:57;;;;;;;7.08;4.12;;;;;;;13.31;69.86;98490.81;1771481;80;20923;-64
2022/09/03 01:20:11;;;;;;;8.48;3.85;;;;;;;13.24;69.64;98489.59;1773771;80;20951;-64
2022/09/03 01:22:59;;;;;;;9.30;3.87;;;;;;;13.19;70.12;98490.48;1767200;80;21092;-66
2022/09/03 01:25:49;;;;;;;8.80;4.40;;;;;;;13.12;70.59;98488.72;1763612;81;20897;-60
2022/09/03 01:28:48;;;;;;;4.90;3.60;;;;;;;13.07;70.57;98487.48;1764220;81;20885;-63
2022/09/03 01:31:35;;;;;;;5.28;3.42;;;;;;;13.08;71.00;98486.38;1718523;82;21533;-63
2022/09/03 01:34:28;;;;;;;8.40;4.35;;;;;;;13.10;71.50;98484.19;1718806;82;21376;-64
2022/09/03 01:37:25;;;;;;;6.15;3.55;;;;;;;13.12;71.62;98487.38;1717545;83;21256;-63
2022/09/03 01:40:14;;;;;;;6.78;3.70;;;;;;;13.12;71.52;98490.06;1698273;83;20938;-61
2022/09/03 01:43:08;;;;;;;6.58;3.65;;;;;;;13.09;71.47;98485.30;1733476;82;20914;-63
2022/09/03 01:45:59;;;;;;;8.35;4.15;;;;;;;13.04;71.54;98485.34;1761548;80;21502;-65
2022/09/03 01:48:42;;;;;;;8.90;3.70;;;;;;;12.99;71.45;98481.38;1763791;81;20983;-64
2022/09/03 01:51:20;;;;;;;9.38;4.00;;;;;;;12.96;71.76;98475.24;1770882;80;21239;-63
2022/09/03 01:54:19;;;;;;;8.95;3.60;;;;;;;12.94;71.91;98476.89;1763529;80;20869;-64
2022/09/03 01:57:13;;;;;;;6.50;3.27;;;;;;;12.92;71.91;98474.24;1762484;80;20925;-63
2022/09/03 02:00:00;;;;;;;6.12;3.50;;;;;;;12.89;72.01;98478.31;1764146;81;20921;-64
2022/09/03 02:02:27;;;;;;;10.40;3.80;;;;;;;12.86;71.90;98473.52;1765014;80;20911;-64
2022/09/03 02:05:09;;;;;;;5.67;3.77;;;;;;;12.84;72.12;98474.89;1764260;80;21063;-62
2022/09/03 02:07:46;;;;;;;8.18;3.42;;;;;;;12.83;72.12;98470.63;1716510;82;20920;-61
2022/09/03 02:10:17;;;;;;;8.63;3.65;;;;;;;12.86;72.37;98472.17;1718814;83;21039;-62
2022/09/03 02:12:51;;;;;;;9.10;3.50;;;;;;;12.92;72.31;98475.58;1706926;83;21571;-64
2022/09/03 02:15:21;;;;;;;7.78;3.95;;;;;;;12.92;72.14;98474.24;1704998;82;21460;-62
2022/09/03 02:17:48;;;;;;;6.53;3.90;;;;;;;12.93;72.04;98472.59;1719812;82;21194;-64
2022/09/03 02:20:19;;;;;;;7.30;3.80;;;;;;;12.92;71.88;98471.02;1767667;80;21455;-62
2022/09/03 02:22:47;;;;;;;5.95;3.60;;;;;;;12.90;71.94;98469.16;1764130;81;20869;-62
2022/09/03 02:25:15;;;;;;;5.97;3.85;;;;;;;12.89;71.86;98470.78;1764126;80;20928;-62
2022/09/03 02:27:43;;;;;;;6.97;3.92;;;;;;;12.86;71.92;98468.67;1766427;80;20969;-63
2022/09/03 02:30:11;;;;;;;6.55;3.37;;;;;;;12.84;71.65;98472.20;1763673;80;21821;-64
2022/09/03 02:32:38;;;;;;;7.85;3.67;;;;;;;12.81;71.55;98468.21;1764210;81;21460;-65
2022/09/03 02:35:06;;;;;;;6.83;3.60;;;;;;;12.78;71.54;98471.50;1766385;80;20885;-65
2022/09/03 02:37:33;;;;;;;5.25;3.75;;;;;;;12.75;71.90;98471.28;1768932;80;20884;-64
2022/09/03 02:40:04;;;;;;;6.05;3.85;;;;;;;12.75;71.84;98472.62;1764323;80;20896;-62
2022/09/03 02:42:30;;;;;;;6.87;3.77;;;;;;;12.77;72.06;98469.09;1766302;80;22032;-65
2022/09/03 02:45:08;;;;;;;8.63;4.00;;;;;;;12.79;72.01;98465.02;1767302;80;20843;-65
2022/09/03 02:47:35;;;;;;;6.10;3.80;;;;;;;12.80;71.92;98469.31;1764908;80;21458;-62
2022/09/03 02:50:02;;;;;;;10.53;3.62;;;;;;;12.85;71.71;98476.50;1763418;80;21395;-62
2022/09/03 02:52:29;;;;;;;7.55;3.72;;;;;;;12.86;71.67;98470.82;1768940;80;20872;-64
2022/09/03 02:54:55;;;;;;;6.70;3.60;;;;;;;12.86;71.65;98476.73;1764247;80;21332;-64
2022/09/03 02:57:22;;;;;;;10.15;4.33;;;;;;;12.83;71.54;98477.34;1716159;82;20889;-62
2022/09/03 02:59:49;;;;;;;8.60;4.78;;;;;;;12.80;71.59;98474.70;1707032;83;20885;-63
2022/09/03 03:02:15;;;;;;;10.48;5.25;;;;;;;12.75;71.72;98477.45;1701775;83;20996;-63
2022/09/03 03:04:42;;;;;;;8.60;4.65;;;;;;;12.70;71.70;98478.06;1701401;83;21421;-64
2022/09/03 03:07:09;;;;;;;9.43;4.22;;;;;;;12.62;71.95;98476.05;1698218;84;21124;-63
2022/09/03 03:09:37;;;;;;;12.53;5.03;;;;;;;12.58;72.22;98475.02;1725267;82;20920;-62
2022/09/03 03:12:06;;;;;;;10.38;5.15;;;;;;;12.55;72.42;98474.28;1715905;83;20972;-64
2022/09/03 03:14:33;;;;;;;10.48;5.03;;;;;;;12.52;72.73;98475.66;1742839;81;21664;-64
2022/09/03 03:17:00;;;;;;;7.28;4.40;;;;;;;12.51;73.09;98475.39;1774152;80;21012;-63
2022/09/03 03:19:27;;;;;;;7.47;4.40;;;;;;;12.51;73.58;98477.27;1775425;80;21179;-62
2022/09/03 03:21:53;;;;;;;7.60;4.17;;;;;;;12.51;74.07;98477.27;1773935;80;20971;-64
2022/09/03 03:24:20;;;;;;;9.55;4.30;;;;;;;12.54;74.36;98479.39;1771583;80;21368;-62
2022/09/03 03:26:47;;;;;;;9.95;4.90;;;;;;;12.54;74.68;98472.13;1764325;81;20936;-64
2022/09/03 03:29:19;;;;;;;8.18;5.45;;;;;;;12.52;75.01;98473.51;1764350;81;21021;-65
2022/09/03 03:31:46;;;;;;;10.65;6.00;;;;;;;12.51;75.52;98470.55;1764224;81;21228;-64
2022/09/03 03:34:12;;;;;;;12.40;5.53;;;;;;;12.46;75.95;98473.34;1768417;80;20908;-64
2022/09/03 03:36:39;;;;;;;10.05;5.87;;;;;;;12.45;76.56;98471.73;1764387;80;21698;-65
2022/09/03 03:39:06;;;;;;;8.40;5.53;;;;;;;12.42;76.98;98470.95;1768658;80;21076;-63
2022/09/03 03:41:34;;;;;;;7.75;5.60;;;;;;;12.42;77.36;98477.67;1763477;80;20982;-65
2022/09/03 03:44:04;;;;;;;7.62;5.28;;;;;;;12.43;77.69;98479.28;1765881;80;21110;-63
2022/09/03 03:46:39;;;;;;;5.65;4.15;;;;;;;12.42;78.00;98476.33;1764220;80;21359;-64
2022/09/03 03:49:06;;;;;;;6.50;4.28;;;;;;;12.40;78.27;98477.17;1765671;80;21432;-62
2022/09/03 03:51:36;;;;;;;6.22;3.90;;;;;;;12.35;78.53;98477.50;1715997;82;21522;-64
2022/09/03 03:54:03;;;;;;;9.20;3.72;;;;;;;12.34;78.94;98478.58;1769361;80;20924;-64
2022/09/03 03:56:31;;;;;;;6.10;3.87;;;;;;;12.35;79.07;98480.19;1765192;80;21237;-65
2022/09/03 03:58:58;;;;;;;6.35;4.10;;;;;;;12.32;79.33;98480.76;1770141;80;20965;-62
2022/09/03 04:01:27;;;;;;;7.12;3.83;;;;;;;12.35;79.55;98480.73;1767278;80;20885;-62
2022/09/03 04:03:57;;;;;;;9.00;3.90;;;;;;;12.36;79.73;98483.69;1773349;80;21060;-64
2022/09/03 04:06:24;;;;;;;8.05;4.10;;;;;;;12.40;79.85;98487.91;1762341;80;21034;-64
2022/09/03 04:08:52;;;;;;;9.03;4.17;;;;;;;12.42;79.66;98493.80;1763922;80;22126;-65
2022/09/03 04:11:21;;;;;;;8.40;4.05;;;;;;;12.41;79.70;98494.90;1766132;80;20880;-63
2022/09/03 04:13:48;;;;;;;6.12;3.60;;;;;;;12.39;79.65;98491.70;1769555;80;21492;-62
2022/09/03 04:16:18;;;;;;;5.78;3.72;;;;;;;12.36;79.88;98496.55;1725317;83;20987;-60
2022/09/03 04:18:48;;;;;;;7.00;3.70;;;;;;;12.36;80.07;98496.55;1705011;83;21016;-61
2022/09/03 04:21:17;;;;;;;5.00;3.60;;;;;;;12.35;80.26;98490.94;1698120;84;21286;-61
2022/09/03 04:23:45;;;;;;;5.35;3.85;;;;;;;12.34;80.47;98492.58;1715577;82;20968;-61
2022/09/03 04:26:16;;;;;;;6.30;3.92;;;;;;;12.33;80.67;98497.14;1701945;83;20901;-62
2022/09/03 04:28:44;;;;;;;6.10;3.92;;;;;;;12.35;80.89;98498.19;1717340;82;20885;-63
2022/09/03 04:31:12;;;;;;;7.95;3.95;;;;;;;12.35;81.13;98497.65;1701276;83;20933;-62
2022/09/03 04:33:39;;;;;;;5.03;3.52;;;;;;;12.36;81.38;98491.17;1706300;84;21151;-61
2022/09/03 04:36:12;;;;;;;7.47;3.67;;;;;;;12.41;81.58;98500.27;1704186;82;21081;-62
2022/09/03 04:38:41;;;;;;;9.10;3.98;;;;;;;12.45;81.71;98501.28;1758477;80;21396;-63
2022/09/03 04:41:10;;;;;;;8.53;4.03;;;;;;;12.46;81.80;98509.05;1765986;80;20924;-61
2022/09/03 04:43:38;;;;;;;5.85;3.98;;;;;;;12.46;82.00;98502.89;1766207;80;20885;-63
2022/09/03 04:46:06;;;;;;;8.38;4.20;;;;;;;12.44;81.95;98508.54;1763787;80;21101;-62
2022/09/03 04:48:34;;;;;;;4.83;3.35;;;;;;;12.43;82.17;98511.52;1770549;80;20871;-62
2022/09/03 04:51:05;;;;;;;5.20;3.67;;;;;;;12.40;82.40;98508.06;1765303;80;20885;-63
2022/09/03 04:53:37;;;;;;;7.10;4.05;;;;;;;12.40;82.68;98504.03;1714920;82;20873;-61
2022/09/03 04:56:17;;;;;;;8.13;3.98;;;;;;;12.43;82.95;98511.52;1703558;82;21619;-63
2022/09/03 04:58:45;;;;;;;6.62;3.90;;;;;;;12.45;83.21;98511.49;1673771;84;22037;-62
2022/09/03 05:01:18;;;;;;;5.00;3.80;;;;;;;12.45;83.38;98514.72;1715305;82;20909;-63
2022/09/03 05:03:45;;;;;;;9.98;3.95;;;;;;;12.47;83.51;98512.53;1699208;83;21690;-63
2022/09/03 05:06:12;;;;;;;6.70;3.83;;;;;;;12.47;83.86;98513.88;1751281;81;20920;-65
2022/09/03 05:08:39;;;;;;;6.95;3.83;;;;;;;12.48;84.11;98515.48;1761100;80;21407;-67
2022/09/03 05:11:06;;;;;;;8.78;4.17;;;;;;;12.50;84.45;98509.27;1755916;80;21220;-62
2022/09/03 05:13:34;;;;;;;6.75;4.37;;;;;;;12.53;84.79;98514.08;1750362;82;20987;-62
2022/09/03 05:16:05;;;;;;;7.92;4.15;;;;;;;12.58;84.94;98513.98;1751964;81;20903;-66
2022/09/03 05:18:37;;;;;;;9.15;4.25;;;;;;;12.62;85.22;98520.40;1753328;81;20997;-63
2022/09/03 05:21:10;;;;;;;9.20;4.15;;;;;;;12.62;85.39;98521.20;1750351;82;21565;-66
2022/09/03 05:23:39;;;;;;;7.95;5.00;;;;;;;12.56;85.74;98513.48;1753350;81;21118;-65
2022/09/03 05:26:08;;;;;;;9.20;4.50;;;;;;;12.54;86.13;98519.16;1753394;81;20947;-62
2022/09/03 05:28:37;;;;;;;6.45;4.47;;;;;;;12.55;86.48;98517.27;1759559;80;20920;-65
2022/09/03 05:31:12;;;;;;;6.05;4.28;;;;;;;12.56;86.86;98517.51;1767577;80;21517;-63
2022/09/03 05:33:43;;;;;;;8.33;4.30;;;;;;;12.53;87.15;98515.42;1759469;80;21051;-64
2022/09/03 05:36:21;;;;;;;8.08;4.45;;;;;;;12.53;87.51;98514.08;1755972;80;21746;-66
2022/09/03 05:38:48;;;;;;;5.75;4.53;;;;;;;12.57;87.79;98515.09;1761670;80;20881;-63
2022/09/03 05:44:00;;;;;;;9.63;4.97;;;;;;;12.64;88.16;98516.88;1745114;81;20920;-65
2022/09/03 05:46:31;;;;;;;7.05;4.78;;;;;;;12.70;88.35;98519.73;1744577;82;20955;-65
2022/09/03 05:49:01;;;;;;;5.95;4.47;;;;;;;12.71;88.45;98520.00;1748523;80;21270;-62
2022/09/03 05:51:29;;;;;;;7.92;5.08;;;;;;;12.76;88.55;98529.33;1743174;81;20991;-63
2022/09/03 05:53:56;;;;;;;8.68;4.90;;;;;;;12.75;88.59;98525.03;1743891;80;21050;-62
2022/09/03 05:56:24;;;;;;;9.68;4.92;;;;;;;12.73;88.60;98527.22;1698496;82;21090;-63
2022/09/03 05:58:53;;;;;;;7.95;4.90;;;;;;;12.76;88.73;98526.64;1744568;82;20938;-63
2022/09/03 06:01:23;;;;;;;8.95;5.47;;;;;;;12.79;88.80;98528.73;1749294;80;21740;-61
2022/09/03 06:03:57;;;;;;;7.65;5.25;;;;;;;12.80;88.99;98529.80;1742546;82;21102;-64
2022/09/03 06:06:26;;;;;;;7.35;5.53;;;;;;;12.83;89.19;98530.57;1746637;82;21083;-66
2022/09/03 06:09:01;;;;;;;7.12;5.20;;;;;;;12.89;89.32;98538.00;1744444;80;21049;-66
2022/09/03 06:11:30;;;;;;;7.60;5.20;;;;;;;12.91;89.45;98530.44;1748508;82;21711;-62
2022/09/03 06:14:00;;;;;;;8.08;5.47;;;;;;;12.94;89.43;98528.52;1746867;81;21205;-64
2022/09/03 06:16:27;;;;;;;9.00;5.70;;;;;;;12.98;89.65;98530.33;1751280;82;20970;-62
2022/09/03 06:18:55;;;;;;;8.65;5.60;;;;;;;13.03;89.65;98526.76;1749410;81;21027;-65
2022/09/03 06:21:21;;;;;;;11.22;5.40;;;;;;;13.10;89.69;98519.14;1753898;80;21019;-61
2022/09/03 06:23:52;;;;;;;6.83;4.90;;;;;;;13.13;89.73;98527.98;1764153;79;21094;-62
2022/09/03 06:26:19;;;;;;;10.55;5.47;;;;;;;13.18;89.75;98525.21;1761337;80;21776;-63
2022/09/03 06:28:49;;;;;;;7.62;5.50;;;;;;;13.21;89.80;98524.63;1756876;80;21487;-63
2022/09/03 06:31:18;;;;;;;8.95;5.42;;;;;;;13.24;89.84;98528.06;1737901;79;21102;-61
2022/09/03 06:33:46;;;;;;;7.70;5.50;;;;;;;13.28;89.91;98521.02;1738788;80;21537;-61
2022/09/03 06:36:15;;;;;;;7.90;4.92;;;;;;;13.34;89.89;98517.14;1731266;82;21083;-62
2022/09/03 06:38:42;;;;;;;7.42;4.92;;;;;;;13.38;90.01;98527.55;1768082;79;21108;-61
2022/09/03 06:41:13;;;;;;;8.30;4.90;;;;;;;13.44;89.98;98528.27;1779680;80;21364;-62
2022/09/03 06:43:41;;;;;;;7.10;4.28;;;;;;;13.48;89.87;98534.11;1770520;79;21508;-63
2022/09/03 06:46:12;;;;;;;6.97;5.30;;;;;;;13.52;89.88;98537.00;1755114;80;21047;-62
2022/09/03 06:48:40;;;;;;;8.75;4.87;;;;;;;13.56;89.90;98538.83;1738722;80;21043;-64
2022/09/03 06:51:15;;;;;;;7.15;5.08;;;;;;;13.54;89.78;98542.34;1764827;80;21104;-61
2022/09/03 06:53:46;;;;;;;7.05;4.35;;;;;;;13.51;89.74;98544.30;1762014;79;20974;-63
2022/09/03 06:56:26;;;;;;;6.67;4.97;;;;;;;13.50;89.84;98552.10;1751951;81;21479;-61
2022/09/03 06:58:56;;;;;;;9.78;5.42;;;;;;;13.49;89.82;98543.80;1754105;80;21083;-63
2022/09/03 07:01:27;;;;;;;7.95;5.50;;;;;;;13.50;89.90;98548.61;1748805;81;21150;-61
2022/09/03 07:04:04;;;;;;;6.70;5.37;;;;;;;13.49;89.90;98551.87;1765160;80;21078;-61
2022/09/03 07:06:35;;;;;;;8.95;6.47;;;;;;;13.51;89.92;98555.59;1765739;80;21564;-67
2022/09/03 07:09:02;;;;;;;9.58;6.03;;;;;;;13.57;90.02;98561.13;1755240;80;21052;-61
2022/09/03 07:11:30;;;;;;;8.68;6.00;;;;;;;13.58;89.87;98560.86;1752525;81;21134;-64
2022/09/03 07:13:58;;;;;;;9.73;5.55;;;;;;;13.60;89.92;98561.36;1747131;80;21411;-63
2022/09/03 07:16:29;;;;;;;7.95;5.65;;;;;;;13.62;90.03;98559.16;1748178;81;21208;-60
2022/09/03 07:18:56;;;;;;;7.83;5.92;;;;;;;13.62;89.92;98557.81;1754964;80;21110;-61
2022/09/03 07:21:27;;;;;;;8.95;5.67;;;;;;;13.61;89.94;98566.97;1748124;81;22059;-61
2022/09/03 07:23:55;;;;;;;8.75;5.80;;;;;;;13.62;89.92;98558.36;1672970;83;21092;-61
2022/09/03 07:26:31;;;;;;;15.78;5.87;;;;;;;13.60;89.97;98564.05;1753465;81;21043;-62
2022/09/03 07:29:01;;;;;;;7.33;5.60;;;;;;;13.62;90.17;98564.55;1756885;81;21275;-63
2022/09/03 07:31:35;;;;;;;7.60;5.47;;;;;;;13.65;90.37;98555.89;1760899;80;20944;-61
2022/09/03 07:34:04;;;;;;;8.25;4.80;;;;;;;13.71;90.47;98563.31;1747905;80;21003;-60
2022/09/03 07:36:42;;;;;;;6.03;4.50;;;;;;;13.75;90.10;98567.02;1756942;80;21087;-58
2022/09/03 07:39:12;;;;;;;5.72;3.98;;;;;;;13.70;89.61;98563.88;1744849;80;21482;-61
2022/09/03 07:41:42;;;;;;;5.37;3.95;;;;;;;13.64;89.45;98566.39;1756118;79;21182;-61
2022/09/03 07:44:09;;;;;;;4.28;3.80;;;;;;;13.62;89.39;98567.23;1750685;81;20952;-62
2022/09/03 07:46:37;;;;;;;6.50;4.60;;;;;;;13.61;89.49;98566.97;1754337;79;21040;-64
2022/09/03 07:49:05;;;;;;;7.20;4.30;;;;;;;13.63;89.60;98572.89;1713080;82;20986;-62
2022/09/03 07:51:37;;;;;;;6.50;4.25;;;;;;;13.67;89.45;98576.58;1705749;82;21639;-61
2022/09/03 07:54:07;;;;;;;6.20;4.20;;;;;;;13.73;89.44;98575.14;1753442;80;21524;-62
2022/09/03 07:56:34;;;;;;;6.25;4.10;;;;;;;13.77;89.40;98576.14;1729747;80;21063;-62
2022/09/03 07:59:02;;;;;;;4.28;3.17;;;;;;;13.84;89.28;98578.70;1754227;80;21070;-62
2022/09/03 08:01:31;;;;;;;5.50;3.50;;;;;;;13.90;88.59;98582.08;1744004;80;21487;-61
2022/09/03 08:03:58;;;;;;;7.25;3.10;;;;;;;13.91;88.25;98583.16;1762319;81;21094;-64
2022/09/03 08:06:27;;;;;;;4.17;2.77;;;;;;;13.97;87.77;98581.14;1749408;81;21234;-61
2022/09/03 08:08:58;;;;;;;4.65;3.08;;;;;;;13.99;87.33;98578.98;1748060;81;21072;-61
2022/09/03 08:11:26;;;;;;;6.10;2.85;;;;;;;14.02;86.89;98583.75;1749076;80;21115;-61
2022/09/03 08:14:02;;;;;;;4.42;2.80;;;;;;;14.06;86.92;98581.50;1756457;80;21086;-61
2022/09/03 08:16:37;;;;;;;4.22;2.67;;;;;;;14.15;86.56;98585.67;1742537;80;21524;-62
2022/09/03 08:19:04;;;;;;;4.80;2.83;;;;;;;14.23;86.43;98576.33;1748773;80;21315;-62
2022/09/03 08:21:31;;;;;;;2.75;2.40;;;;;;;14.31;85.75;98584.30;1761097;80;21022;-62
2022/09/03 08:24:04;;;;;;;3.37;2.47;;;;;;;14.30;85.52;98573.27;1747648;80;20998;-61
2022/09/03 08:26:34;;;;;;;3.72;2.40;;;;;;;14.26;84.59;98576.28;1753796;81;21016;-63
2022/09/03 08:29:02;;;;;;;4.80;2.67;;;;;;;14.23;84.84;98578.22;1752439;80;20973;-62
2022/09/03 08:31:29;;;;;;;4.58;2.98;;;;;;;14.27;85.03;98572.51;1747460;80;21226;-61
2022/09/03 08:33:58;;;;;;;2.98;2.33;;;;;;;14.29;85.11;98575.70;1743567;81;21474;-59
2022/09/03 08:36:32;;;;;;;4.55;3.02;;;;;;;14.32;84.99;98576.45;1751885;81;21090;-60
2022/09/03 08:39:08;;;;;;;4.75;2.50;;;;;;;14.31;84.39;98581.06;1752953;81;21473;-61
2022/09/03 08:41:49;;;;;;;4.33;2.87;;;;;;;14.27;84.28;98576.55;1768289;80;20911;-62
2022/09/03 08:44:47;;;;;;;6.45;2.72;;;;;;;14.22;84.31;98577.98;1763979;80;21109;-63
2022/09/03 08:47:21;;;;;;;5.62;3.20;;;;;;;14.17;84.59;98583.47;1755189;80;21116;-60
2022/09/03 08:50:22;;;;;;;3.72;2.85;;;;;;;14.13;84.75;98575.75;1743597;81;20999;-63
2022/09/03 08:53:03;;;;;;;4.50;2.80;;;;;;;14.11;84.95;98583.30;1747353;81;20957;-62
2022/09/03 08:55:54;;;;;;;5.33;2.87;;;;;;;14.09;85.29;98573.38;1751681;81;21090;-63
2022/09/03 08:58:26;;;;;;;3.65;2.65;;;;;;;14.09;85.63;98580.92;1749421;81;21276;-64
2022/09/03 09:01:32;;;;;;;3.35;3.05;;;;;;;14.12;85.35;98572.79;1748912;81;20849;-64
2022/09/03 09:04:25;;;;;;;4.72;3.15;;;;;;;14.10;85.32;98584.42;1753541;81;20959;-63
2022/09/03 09:07:13;;;;;;;3.12;2.50;;;;;;;14.05;85.42;98583.97;1766404;81;21016;-62
2022/09/03 09:09:54;;;;;;;3.55;2.80;;;;;;;14.03;85.71;98585.36;1760826;80;20991;-63
2022/09/03 09:12:35;;;;;;;4.53;2.62;;;;;;;13.99;85.82;98584.36;1756078;80;21241;-63
2022/09/03 09:15:29;;;;;;;3.33;2.87;;;;;;;13.91;85.83;98582.34;1755680;81;20955;-62
2022/09/03 09:18:04;;;;;;;3.30;2.30;;;;;;;13.86;86.16;98579.74;1751346;81;21569;-62
2022/09/03 09:20:48;;;;;;;3.00;2.27;;;;;;;13.83;86.12;98587.06;1734973;82;21400;-62
2022/09/03 09:23:27;;;;;;;5.37;2.58;;;;;;;13.79;85.89;98589.56;1757456;81;21106;-62
2022/09/03 09:25:56;;;;;;;4.25;2.35;;;;;;;13.73;85.90;98589.38;1745627;80;21143;-63
2022/09/03 09:28:26;;;;;;;4.78;2.83;;;;;;;13.68;86.21;98588.92;1763582;81;20952;-63
2022/09/03 09:30:54;;;;;;;4.08;2.12;;;;;;;13.68;86.44;98588.15;1747114;80;20892;-62
2022/09/03 09:33:21;;;;;;;3.65;2.12;;;;;;;13.69;86.76;98583.80;1752707;81;20914;-64
2022/09/03 09:35:48;;;;;;;3.92;2.42;;;;;;;13.68;87.08;98591.61;1761645;80;21063;-63
2022/09/03 09:38:17;;;;;;;3.67;2.45;;;;;;;13.71;87.30;98594.27;1759073;80;21152;-61
2022/09/03 09:40:44;;;;;;;6.67;2.05;;;;;;;13.73;87.42;98594.22;1757016;80;20997;-61
2022/09/03 09:43:19;;;;;;;2.70;1.92;;;;;;;13.77;87.63;98598.48;1749600;80;21503;-62
2022/09/03 09:45:50;;;;;;;;;;;;;;;13.77;87.35;98594.98;1758474;80;20963;-61
2022/09/03 09:48:33;;;;;;;3.40;1.80;;;;;;;13.73;87.57;98596.91;1762065;80;20104;-61
2022/09/03 09:51:11;;;;;;;2.35;1.57;;;;;;;13.70;87.83;98592.14;1736498;81;22191;-60
2022/09/03 09:53:40;;;;;;;3.15;1.80;;;;;;;13.66;87.86;98597.04;1759324;80;21089;-62
2022/09/03 09:56:07;;;;;;;2.42;1.67;;;;;;;13.63;87.91;98594.42;1749438;80;20939;-62
2022/09/03 09:58:34;;;;;;;3.90;1.62;;;;;;;13.59;87.84;98600.13;1757576;80;21506;-62
2022/09/03 10:01:22;;;;;;;2.27;1.50;;;;;;;13.57;88.15;98598.81;1764526;80;20872;-61
2022/09/03 10:03:58;;;;;;;1.75;1.30;;;;;;;13.60;88.30;98604.42;1744710;80;21217;-62
2022/09/03 10:09:18;;;;;;;4.00;2.02;;;;;;;13.65;88.31;98602.99;1742520;80;21059;-63
2022/09/03 10:12:05;;;;;;;1.92;1.60;;;;;;;13.62;88.54;98602.23;1750186;80;20992;-63
2022/09/03 10:14:37;;;;;;;2.12;1.42;;;;;;;13.61;88.70;98609.27;1762707;80;21032;-63
2022/09/03 10:17:43;;;;;;;2.33;1.50;;;;;;;13.65;88.89;98601.65;1750924;81;21364;-62
2022/09/03 10:20:46;;;;;;;3.17;1.73;;;;;;;13.71;88.86;98609.88;1725801;81;20935;-64
2022/09/03 10:23:24;;;;;;;3.65;1.90;;;;;;;13.78;88.98;98608.72;1758296;80;20916;-65
